Time;durP1;ratioP1;P1;durP2;ratioP2;P2;SDS_P1;SDS_P2;PMS_P1;PMS_P2;Temp;Humidity;BMP_temperature;BMP_pressure;BME280_temperature;BME280_humidity;BME280_pressure;Samples;Min_cycle;Max_cycle;Signal;HPM_P1;HPM_P2
2021/12/25 00:00:10;;;;;;;25.13;16.13;;;;;;;;;;5032637;28;20178;-72
2021/12/25 00:02:36;;;;;;;26.07;17.03;;;;;;;;;;5030784;28;20209;-73
2021/12/25 00:05:02;;;;;;;27.47;17.90;;;;;;;;;;5037278;28;21891;-73
2021/12/25 00:07:27;;;;;;;29.40;18.93;;;;;;;;;;5031285;28;20594;-73
2021/12/25 00:09:52;;;;;;;29.53;19.00;;;;;;;;;;5031958;28;20852;-73
2021/12/25 00:12:17;;;;;;;34.23;20.73;;;;;;;;;;5032348;28;20681;-73
2021/12/25 00:14:42;;;;;;;32.77;19.23;;;;;;;;;;5033302;28;20209;-73
2021/12/25 00:17:08;;;;;;;29.63;19.27;;;;;;;;;;5036423;28;20178;-73
2021/12/25 00:19:33;;;;;;;36.67;20.07;;;;;;;;;;5038607;28;20185;-72
2021/12/25 00:22:00;;;;;;;32.97;18.80;;;;;;;;;;5039159;28;20243;-74
2021/12/25 00:24:25;;;;;;;32.13;20.27;;;;;;;;;;5040884;28;20183;-72
2021/12/25 00:29:50;;;;;;;34.47;18.93;;;;;;;;;;5042095;28;20760;-73
2021/12/25 00:34:44;;;;;;;26.93;17.30;;;;;;;;;;5046584;28;20266;-73
2021/12/25 00:37:09;;;;;;;30.93;17.47;;;;;;;;;;5045570;28;20626;-73
2021/12/25 00:39:35;;;;;;;29.17;16.33;;;;;;;;;;5046738;28;21176;-73
2021/12/25 00:42:01;;;;;;;27.53;16.30;;;;;;;;;;5043691;28;20193;-73
2021/12/25 00:44:26;;;;;;;27.37;15.17;;;;;;;;;;5044787;28;20182;-72
2021/12/25 00:46:52;;;;;;;28.17;16.00;;;;;;;;;;5050111;28;20181;-73
2021/12/25 00:49:17;;;;;;;30.33;16.67;;;;;;;;;;5047798;28;20947;-73
2021/12/25 00:51:42;;;;;;;24.97;16.60;;;;;;;;;;5048005;28;20178;-73
2021/12/25 00:54:09;;;;;;;21.83;14.90;;;;;;;;;;5044894;28;20620;-72
2021/12/25 00:56:34;;;;;;;24.83;16.07;;;;;;;;;;5039518;28;20250;-73
2021/12/25 00:58:59;;;;;;;21.63;14.50;;;;;;;;;;5068840;23;20225;-70
2021/12/25 01:01:24;;;;;;;20.80;14.40;;;;;;;;;;5062705;28;20283;-69
2021/12/25 01:03:50;;;;;;;20.73;14.43;;;;;;;;;;5065620;28;20173;-69
2021/12/25 01:06:15;;;;;;;19.93;13.80;;;;;;;;;;5082364;28;20173;-68
2021/12/25 01:08:40;;;;;;;20.83;13.23;;;;;;;;;;5070764;28;20602;-71
2021/12/25 01:11:06;;;;;;;18.57;13.13;;;;;;;;;;5067302;28;20185;-71
2021/12/25 01:13:36;;;;;;;21.77;12.90;;;;;;;;;;5063739;28;20196;-70
2021/12/25 01:21:39;;;;;;;15.07;10.57;;;;;;;;;;5063169;28;20204;-70
2021/12/25 01:42:06;;;;;;;16.83;10.87;;;;;;;;;;5061101;28;20184;-70
2021/12/25 01:49:43;;;;;;;15.53;10.60;;;;;;;;;;5068024;28;20239;-71
2021/12/25 01:52:08;;;;;;;15.47;11.30;;;;;;;;;;5065826;28;20201;-71
2021/12/25 01:54:33;;;;;;;14.97;10.90;;;;;;;;;;5064120;28;20178;-71
2021/12/25 01:56:59;;;;;;;13.27;9.70;;;;;;;;;;5068071;28;20205;-71
2021/12/25 01:59:24;;;;;;;13.80;10.17;;;;;;;;;;5069458;28;20208;-71
2021/12/25 02:01:50;;;;;;;14.47;10.17;;;;;;;;;;5068806;28;20737;-71
2021/12/25 02:04:15;;;;;;;15.23;10.17;;;;;;;;;;5063029;28;20181;-70
2021/12/25 02:06:41;;;;;;;16.33;10.57;;;;;;;;;;5066846;28;20570;-71
2021/12/25 02:09:06;;;;;;;11.93;8.57;;;;;;;;;;5069826;28;20208;-70
2021/12/25 02:11:31;;;;;;;13.60;9.87;;;;;;;;;;5066259;28;20189;-70
2021/12/25 02:13:58;;;;;;;14.53;10.43;;;;;;;;;;5069082;28;20249;-71
2021/12/25 02:16:27;;;;;;;15.73;11.03;;;;;;;;;;5066020;28;20193;-71
2021/12/25 02:19:13;;;;;;;14.47;9.93;;;;;;;;;;5062337;28;20704;-69
2021/12/25 02:21:40;;;;;;;13.23;8.93;;;;;;;;;;5057488;28;22373;-71
2021/12/25 02:24:06;;;;;;;13.40;9.30;;;;;;;;;;5067553;28;20188;-71
2021/12/25 02:26:31;;;;;;;14.13;9.87;;;;;;;;;;5064868;28;20173;-71
2021/12/25 02:28:57;;;;;;;14.20;9.87;;;;;;;;;;5068982;28;20326;-71
2021/12/25 02:31:23;;;;;;;14.33;9.23;;;;;;;;;;5063270;28;20561;-71
2021/12/25 02:33:48;;;;;;;16.40;10.73;;;;;;;;;;5060794;28;20172;-70
2021/12/25 02:36:14;;;;;;;14.57;9.50;;;;;;;;;;5063339;28;20205;-71
2021/12/25 02:38:40;;;;;;;17.93;11.10;;;;;;;;;;5068979;28;20196;-71
2021/12/25 02:41:05;;;;;;;17.20;11.40;;;;;;;;;;5054569;28;20177;-70
2021/12/25 02:43:31;;;;;;;16.53;10.83;;;;;;;;;;5067805;28;20231;-70
2021/12/25 02:46:01;;;;;;;17.53;10.97;;;;;;;;;;5060830;28;20202;-71
2021/12/25 02:48:27;;;;;;;16.50;11.10;;;;;;;;;;5061992;28;20204;-71
2021/12/25 02:50:52;;;;;;;16.57;11.67;;;;;;;;;;5069252;28;20268;-68
2021/12/25 02:53:17;;;;;;;17.93;11.50;;;;;;;;;;5068093;28;20221;-71
2021/12/25 02:55:43;;;;;;;18.23;12.60;;;;;;;;;;5063895;28;20205;-71
2021/12/25 02:58:09;;;;;;;19.73;12.20;;;;;;;;;;5063756;28;20699;-71
2021/12/25 03:00:48;;;;;;;18.37;12.00;;;;;;;;;;5068583;28;20178;-71
2021/12/25 03:03:13;;;;;;;18.97;12.57;;;;;;;;;;5061908;28;20173;-70
2021/12/25 03:05:39;;;;;;;18.10;11.30;;;;;;;;;;5065846;28;20560;-70
2021/12/25 03:08:05;;;;;;;21.80;12.57;;;;;;;;;;5059815;28;20231;-70
2021/12/25 03:10:33;;;;;;;21.13;13.77;;;;;;;;;;5064980;28;20169;-70
2021/12/25 03:13:17;;;;;;;20.73;13.57;;;;;;;;;;5068350;28;20174;-71
2021/12/25 03:15:47;;;;;;;18.70;12.57;;;;;;;;;;5061681;28;20280;-71
2021/12/25 03:18:20;;;;;;;19.90;12.30;;;;;;;;;;5081905;28;20693;-71
2021/12/25 03:20:46;;;;;;;23.07;13.83;;;;;;;;;;5065150;28;20256;-71
2021/12/25 03:23:15;;;;;;;22.03;14.10;;;;;;;;;;5057716;28;20619;-70
2021/12/25 03:25:41;;;;;;;22.90;14.70;;;;;;;;;;5075333;28;20177;-71
2021/12/25 03:28:06;;;;;;;22.03;13.60;;;;;;;;;;5064901;28;20595;-71
2021/12/25 03:30:36;;;;;;;22.70;15.20;;;;;;;;;;5063636;28;20177;-70
2021/12/25 03:33:01;;;;;;;24.13;14.80;;;;;;;;;;5058632;28;20237;-70
2021/12/25 03:35:27;;;;;;;22.40;14.30;;;;;;;;;;5065385;28;20283;-70
2021/12/25 03:37:52;;;;;;;22.53;14.07;;;;;;;;;;5066181;28;20188;-72
2021/12/25 03:40:17;;;;;;;22.93;14.57;;;;;;;;;;5060963;28;20324;-71
2021/12/25 03:42:43;;;;;;;21.67;14.27;;;;;;;;;;5067380;28;20630;-71
2021/12/25 03:45:08;;;;;;;22.63;15.10;;;;;;;;;;5054768;28;20192;-71
2021/12/25 03:47:37;;;;;;;21.90;14.70;;;;;;;;;;5082339;28;20598;-71
2021/12/25 03:58:21;;;;;;;22.60;14.03;;;;;;;;;;5066983;28;20220;-71
2021/12/25 04:00:48;;;;;;;22.37;14.37;;;;;;;;;;5065533;28;20246;-70
2021/12/25 04:03:26;;;;;;;22.07;13.97;;;;;;;;;;5062861;28;20671;-70
2021/12/25 04:05:51;;;;;;;26.40;15.17;;;;;;;;;;5082589;28;20191;-69
2021/12/25 04:08:20;;;;;;;24.47;15.23;;;;;;;;;;5064219;28;20204;-70
2021/12/25 04:10:46;;;;;;;25.87;15.30;;;;;;;;;;5060655;28;20208;-70
2021/12/25 04:13:13;;;;;;;26.13;14.70;;;;;;;;;;5064814;28;20638;-70
2021/12/25 04:15:38;;;;;;;24.53;14.80;;;;;;;;;;5055442;28;20201;-70
2021/12/25 04:18:04;;;;;;;25.93;15.33;;;;;;;;;;5059671;28;20205;-72
2021/12/25 04:20:29;;;;;;;23.97;14.27;;;;;;;;;;5056781;28;20177;-72
2021/12/25 04:23:02;;;;;;;23.73;14.70;;;;;;;;;;5055927;28;20178;-72
2021/12/25 04:25:31;;;;;;;23.33;15.40;;;;;;;;;;5059756;28;20232;-70
2021/12/25 04:28:01;;;;;;;23.87;14.70;;;;;;;;;;5064237;28;20201;-70
2021/12/25 04:42:36;;;;;;;26.60;15.33;;;;;;;;;;5070077;28;20620;-70
2021/12/25 04:50:29;;;;;;;21.40;13.47;;;;;;;;;;5063390;28;20227;-70
2021/12/25 05:03:57;;;;;;;22.50;13.10;;;;;;;;;;5070134;28;20191;-71
2021/12/25 05:06:23;;;;;;;16.97;11.60;;;;;;;;;;5066251;28;20197;-71
2021/12/25 05:08:52;;;;;;;22.77;12.63;;;;;;;;;;5070247;28;20292;-72
2021/12/25 05:11:18;;;;;;;18.00;11.37;;;;;;;;;;5058592;28;20188;-71
2021/12/25 05:13:45;;;;;;;21.10;12.90;;;;;;;;;;5067520;28;20268;-70
2021/12/25 05:16:11;;;;;;;24.90;11.90;;;;;;;;;;5068788;28;20535;-69
2021/12/25 05:18:36;;;;;;;19.37;12.30;;;;;;;;;;5066842;28;20253;-72
2021/12/25 05:21:02;;;;;;;15.07;10.37;;;;;;;;;;5069807;28;20184;-71
2021/12/25 05:23:27;;;;;;;21.37;10.97;;;;;;;;;;5069802;28;20234;-70
2021/12/25 05:25:53;;;;;;;17.77;10.50;;;;;;;;;;5065219;28;20189;-71
2021/12/25 05:28:26;;;;;;;19.00;12.53;;;;;;;;;;5066432;28;20288;-72
2021/12/25 05:30:52;;;;;;;16.47;9.50;;;;;;;;;;5067083;28;20556;-72
2021/12/25 05:33:18;;;;;;;18.07;9.97;;;;;;;;;;5069208;28;20634;-72
2021/12/25 05:35:43;;;;;;;14.17;9.40;;;;;;;;;;5083328;28;20193;-69
2021/12/25 05:38:13;;;;;;;17.10;9.97;;;;;;;;;;5065855;28;20570;-69
2021/12/25 05:40:39;;;;;;;16.23;9.50;;;;;;;;;;5063657;28;20201;-69
2021/12/25 05:43:04;;;;;;;15.03;9.27;;;;;;;;;;5066770;28;20217;-70
2021/12/25 05:45:29;;;;;;;14.73;8.77;;;;;;;;;;5063557;28;20662;-69
2021/12/25 05:47:55;;;;;;;11.60;8.23;;;;;;;;;;5082778;28;20193;-70
2021/12/25 05:50:20;;;;;;;12.13;8.23;;;;;;;;;;5064793;28;20224;-70
2021/12/25 05:52:45;;;;;;;15.10;9.10;;;;;;;;;;5067052;28;20625;-70
2021/12/25 05:55:10;;;;;;;12.43;8.07;;;;;;;;;;5056265;28;20211;-70
2021/12/25 05:57:35;;;;;;;11.23;8.13;;;;;;;;;;5058014;28;20222;-71
2021/12/25 06:00:01;;;;;;;15.07;8.33;;;;;;;;;;5067488;28;20179;-68
2021/12/25 06:02:26;;;;;;;10.23;6.90;;;;;;;;;;5056125;28;20635;-70
2021/12/25 06:04:51;;;;;;;10.93;6.47;;;;;;;;;;5062799;28;20258;-70
2021/12/25 06:07:16;;;;;;;10.03;6.33;;;;;;;;;;5063733;28;20173;-70
2021/12/25 06:09:41;;;;;;;7.47;5.67;;;;;;;;;;5061292;28;20559;-70
2021/12/25 06:12:10;;;;;;;9.77;6.40;;;;;;;;;;5063231;28;20181;-70
2021/12/25 06:14:35;;;;;;;11.53;6.87;;;;;;;;;;5064222;28;20701;-71
2021/12/25 06:17:00;;;;;;;10.93;6.77;;;;;;;;;;5065276;28;20284;-71
2021/12/25 06:19:25;;;;;;;9.47;5.70;;;;;;;;;;5060132;28;20261;-70
2021/12/25 06:21:51;;;;;;;8.90;5.40;;;;;;;;;;5066553;28;20231;-70
2021/12/25 06:24:16;;;;;;;8.77;5.00;;;;;;;;;;5065595;28;20176;-70
2021/12/25 06:26:41;;;;;;;7.20;5.40;;;;;;;;;;5079260;28;20267;-71
2021/12/25 06:29:07;;;;;;;10.97;5.43;;;;;;;;;;5062290;28;20193;-69
2021/12/25 06:31:32;;;;;;;6.43;4.70;;;;;;;;;;5058212;28;20665;-69
2021/12/25 06:33:58;;;;;;;6.20;3.60;;;;;;;;;;5065673;28;20173;-69
2021/12/25 06:36:23;;;;;;;8.47;3.97;;;;;;;;;;5079700;28;20205;-69
2021/12/25 06:38:48;;;;;;;5.03;3.10;;;;;;;;;;5058854;28;20190;-70
2021/12/25 06:41:14;;;;;;;4.57;3.10;;;;;;;;;;5065973;28;20176;-69
2021/12/25 06:43:40;;;;;;;4.60;3.47;;;;;;;;;;5058745;28;20179;-69
2021/12/25 06:46:05;;;;;;;4.83;3.33;;;;;;;;;;5079077;28;20196;-68
2021/12/25 06:48:30;;;;;;;4.63;3.13;;;;;;;;;;5070563;28;20197;-70
2021/12/25 06:50:55;;;;;;;4.47;2.93;;;;;;;;;;5063188;28;20584;-70
2021/12/25 06:53:20;;;;;;;5.07;2.60;;;;;;;;;;5064465;28;20231;-70
2021/12/25 06:55:46;;;;;;;3.67;3.03;;;;;;;;;;5064625;28;20630;-70
2021/12/25 06:58:11;;;;;;;5.30;2.50;;;;;;;;;;5084080;22;20414;-74
2021/12/25 07:00:36;;;;;;;3.83;2.20;;;;;;;;;;5086622;28;20177;-74
2021/12/25 07:03:02;;;;;;;4.90;1.80;;;;;;;;;;5088943;28;20549;-74
2021/12/25 07:05:27;;;;;;;3.67;2.40;;;;;;;;;;5087063;28;20644;-72
2021/12/25 07:07:52;;;;;;;4.17;2.17;;;;;;;;;;5087613;28;20176;-74
2021/12/25 07:10:18;;;;;;;4.37;3.00;;;;;;;;;;5088423;28;20811;-74
2021/12/25 07:12:46;;;;;;;3.13;2.10;;;;;;;;;;5087084;28;20276;-74
2021/12/25 07:15:12;;;;;;;5.07;2.10;;;;;;;;;;5084403;28;20227;-73
2021/12/25 07:17:37;;;;;;;2.57;2.10;;;;;;;;;;5085159;28;20245;-72
2021/12/25 07:20:03;;;;;;;4.30;2.00;;;;;;;;;;5085268;28;20199;-73
2021/12/25 07:22:28;;;;;;;4.07;1.87;;;;;;;;;;5087165;28;20176;-73
2021/12/25 07:24:53;;;;;;;3.77;2.00;;;;;;;;;;5081038;28;20553;-73
2021/12/25 07:27:18;;;;;;;3.03;1.80;;;;;;;;;;5078779;28;20200;-73
2021/12/25 07:29:44;;;;;;;3.60;2.00;;;;;;;;;;5084378;28;20199;-72
2021/12/25 07:32:09;;;;;;;4.20;2.93;;;;;;;;;;5083071;28;20623;-73
2021/12/25 07:34:36;;;;;;;5.17;2.40;;;;;;;;;;5079441;28;20172;-73
2021/12/25 07:37:01;;;;;;;6.03;2.97;;;;;;;;;;5081201;28;20246;-73
2021/12/25 07:39:26;;;;;;;2.70;1.97;;;;;;;;;;5077054;28;20197;-73
2021/12/25 07:41:52;;;;;;;3.50;2.40;;;;;;;;;;5086769;28;20187;-73
2021/12/25 07:44:17;;;;;;;5.90;2.23;;;;;;;;;;5086771;28;20333;-72
2021/12/25 07:46:44;;;;;;;6.80;3.77;;;;;;;;;;5084321;28;21379;-73
2021/12/25 07:49:18;;;;;;;2.93;2.37;;;;;;;;;;5088886;28;20302;-73
2021/12/25 07:51:43;;;;;;;3.27;2.03;;;;;;;;;;5085354;28;20188;-72
2021/12/25 07:54:09;;;;;;;3.70;2.00;;;;;;;;;;5086319;28;20184;-73
2021/12/25 07:56:35;;;;;;;2.77;2.10;;;;;;;;;;5084335;28;20200;-72
2021/12/25 07:59:00;;;;;;;4.33;2.20;;;;;;;;;;5079604;28;20208;-73
2021/12/25 08:01:25;;;;;;;3.93;2.10;;;;;;;;;;5079987;28;20281;-73
2021/12/25 08:03:50;;;;;;;6.53;2.20;;;;;;;;;;5080172;28;20192;-73
2021/12/25 08:06:16;;;;;;;5.30;1.73;;;;;;;;;;5084261;28;20176;-73
2021/12/25 08:08:42;;;;;;;2.73;1.90;;;;;;;;;;5084659;28;20192;-73
2021/12/25 08:11:07;;;;;;;3.23;2.10;;;;;;;;;;5083574;28;20639;-72
2021/12/25 08:13:32;;;;;;;2.77;2.10;;;;;;;;;;5084624;28;20180;-72
2021/12/25 08:15:57;;;;;;;3.70;1.90;;;;;;;;;;5084372;28;20677;-73
2021/12/25 08:18:23;;;;;;;3.93;2.87;;;;;;;;;;5084457;28;20241;-73
2021/12/25 08:20:48;;;;;;;2.90;1.77;;;;;;;;;;5079053;28;20225;-73
2021/12/25 08:23:13;;;;;;;2.27;1.83;;;;;;;;;;5083730;28;20548;-72
2021/12/25 08:25:38;;;;;;;3.20;2.03;;;;;;;;;;5083875;28;20183;-72
2021/12/25 08:28:03;;;;;;;3.30;1.97;;;;;;;;;;5083974;28;20255;-72
2021/12/25 08:30:29;;;;;;;3.53;2.20;;;;;;;;;;5083464;28;20176;-72
2021/12/25 08:32:58;;;;;;;4.67;2.37;;;;;;;;;;5083003;28;20225;-72
2021/12/25 08:35:24;;;;;;;3.73;1.83;;;;;;;;;;5082884;28;20203;-73
2021/12/25 08:37:50;;;;;;;4.30;2.00;;;;;;;;;;5084155;28;20657;-72
2021/12/25 08:40:15;;;;;;;3.43;2.37;;;;;;;;;;5082671;28;20472;-73
2021/12/25 08:42:46;;;;;;;2.50;1.93;;;;;;;;;;5084015;28;20632;-73
2021/12/25 08:45:37;;;;;;;4.40;2.30;;;;;;;;;;5080621;28;20668;-72
2021/12/25 08:47:57;;;;;;;2.57;1.90;;;;;;;;;;5083283;28;20286;-72
2021/12/25 08:50:23;;;;;;;4.77;2.40;;;;;;;;;;5079503;28;20708;-72
2021/12/25 08:52:49;;;;;;;3.43;2.30;;;;;;;;;;5082753;28;20229;-72
2021/12/25 08:55:14;;;;;;;3.30;2.67;;;;;;;;;;5083097;28;20208;-73
2021/12/25 08:57:39;;;;;;;3.27;2.10;;;;;;;;;;5083683;28;20442;-72
2021/12/25 09:00:05;;;;;;;3.47;2.53;;;;;;;;;;5082771;28;20255;-72
2021/12/25 09:02:30;;;;;;;3.83;2.40;;;;;;;;;;5082972;28;20196;-72
2021/12/25 09:04:55;;;;;;;4.70;1.90;;;;;;;;;;5084108;28;20172;-72
2021/12/25 09:07:20;;;;;;;3.77;1.93;;;;;;;;;;5082907;28;20177;-72
2021/12/25 09:09:46;;;;;;;2.77;2.20;;;;;;;;;;5084508;28;20204;-72
2021/12/25 09:12:14;;;;;;;4.33;2.27;;;;;;;;;;5081727;28;20698;-73
2021/12/25 09:14:40;;;;;;;3.13;2.20;;;;;;;;;;5086170;28;20219;-72
2021/12/25 09:17:05;;;;;;;4.70;2.70;;;;;;;;;;5084381;28;20661;-72
2021/12/25 09:19:31;;;;;;;3.57;2.10;;;;;;;;;;5087333;28;20389;-72
2021/12/25 09:21:57;;;;;;;4.30;2.23;;;;;;;;;;5088385;28;20180;-73
2021/12/25 09:24:22;;;;;;;3.10;2.33;;;;;;;;;;5083110;28;20205;-73
2021/12/25 09:26:47;;;;;;;2.93;2.20;;;;;;;;;;5086682;28;20263;-72
2021/12/25 09:29:13;;;;;;;3.97;2.03;;;;;;;;;;5087367;28;20668;-72
2021/12/25 09:31:38;;;;;;;3.97;2.10;;;;;;;;;;5088926;28;20244;-73
2021/12/25 09:34:03;;;;;;;3.53;2.20;;;;;;;;;;5078550;28;20208;-73
2021/12/25 09:36:29;;;;;;;2.87;2.10;;;;;;;;;;5083142;28;20891;-72
2021/12/25 09:38:54;;;;;;;3.93;2.17;;;;;;;;;;5085407;28;20188;-73
2021/12/25 09:41:20;;;;;;;3.67;1.97;;;;;;;;;;5082950;28;20180;-72
2021/12/25 09:43:47;;;;;;;4.40;1.97;;;;;;;;;;5082737;28;20670;-73
2021/12/25 09:46:12;;;;;;;2.70;1.77;;;;;;;;;;5082360;28;20653;-72
2021/12/25 09:48:37;;;;;;;3.10;1.80;;;;;;;;;;5081225;28;20200;-73
2021/12/25 09:51:03;;;;;;;1.70;1.60;;;;;;;;;;5086818;28;20233;-73
2021/12/25 09:53:28;;;;;;;1.80;1.60;;;;;;;;;;5091186;28;20185;-73
2021/12/25 09:55:54;;;;;;;2.80;1.80;;;;;;;;;;5082238;28;20668;-73
2021/12/25 09:58:19;;;;;;;2.53;1.70;;;;;;;;;;5087073;28;20204;-72
2021/12/25 10:00:46;;;;;;;2.10;1.30;;;;;;;;;;5079680;28;20180;-73
2021/12/25 10:03:11;;;;;;;1.67;1.50;;;;;;;;;;5090046;28;20189;-74
2021/12/25 10:05:38;;;;;;;3.30;1.50;;;;;;;;;;5084332;28;20650;-74
2021/12/25 10:08:03;;;;;;;6.37;1.53;;;;;;;;;;5081013;28;20376;-73
2021/12/25 10:10:36;;;;;;;1.40;1.27;;;;;;;;;;5062430;28;20180;-73
2021/12/25 10:13:02;;;;;;;1.40;1.10;;;;;;;;;;5068147;28;20630;-73
2021/12/25 10:15:28;;;;;;;2.17;1.10;;;;;;;;;;5069303;28;20203;-73
2021/12/25 10:17:57;;;;;;;0.93;0.83;;;;;;;;;;5072835;28;20173;-74
2021/12/25 10:20:23;;;;;;;1.17;1.03;;;;;;;;;;5070489;28;20184;-73
2021/12/25 10:22:52;;;;;;;1.43;1.33;;;;;;;;;;5067830;28;20189;-73
2021/12/25 10:25:17;;;;;;;1.33;0.90;;;;;;;;;;5067048;28;20188;-73
2021/12/25 10:28:02;;;;;;;1.53;1.13;;;;;;;;;;5066959;28;20188;-73
2021/12/25 10:30:28;;;;;;;0.80;0.80;;;;;;;;;;5072849;28;20196;-73
2021/12/25 10:32:53;;;;;;;1.53;1.00;;;;;;;;;;5067453;28;21857;-73
2021/12/25 10:35:21;;;;;;;0.80;0.80;;;;;;;;;;5064779;28;20215;-74
2021/12/25 10:37:46;;;;;;;1.37;0.83;;;;;;;;;;5067617;28;20184;-75
2021/12/25 10:40:31;;;;;;;0.60;0.60;;;;;;;;;;5068792;28;20660;-72
2021/12/25 10:42:58;;;;;;;1.60;1.10;;;;;;;;;;5071206;28;20798;-73
2021/12/25 10:45:26;;;;;;;6.10;1.03;;;;;;;;;;5086690;28;20198;-73
2021/12/25 10:48:00;;;;;;;1.47;1.20;;;;;;;;;;5086115;28;20180;-73
2021/12/25 10:50:26;;;;;;;1.10;1.00;;;;;;;;;;5080559;28;20527;-73
2021/12/25 10:52:51;;;;;;;0.77;0.70;;;;;;;;;;5068942;28;20183;-73
2021/12/25 10:55:24;;;;;;;0.87;0.80;;;;;;;;;;5068268;28;20189;-73
2021/12/25 10:57:54;;;;;;;0.97;0.70;;;;;;;;;;5068602;28;20184;-73
2021/12/25 11:00:22;;;;;;;2.27;0.70;;;;;;;;;;5065969;28;20192;-74
2021/12/25 11:02:47;;;;;;;1.50;1.30;;;;;;;;;;5068136;28;20212;-74
2021/12/25 11:05:21;;;;;;;2.50;1.23;;;;;;;;;;5068467;28;20272;-74
2021/12/25 11:07:48;;;;;;;1.73;1.30;;;;;;;;;;5066049;28;20186;-73
2021/12/25 11:10:19;;;;;;;1.00;0.80;;;;;;;;;;5068775;28;20211;-73
2021/12/25 11:12:45;;;;;;;1.20;0.80;;;;;;;;;;5066458;28;20178;-73
2021/12/25 11:15:10;;;;;;;1.17;0.70;;;;;;;;;;5066787;28;20177;-74
2021/12/25 11:17:37;;;;;;;1.40;0.80;;;;;;;;;;5065557;28;20172;-73
2021/12/25 11:20:03;;;;;;;0.87;0.80;;;;;;;;;;5069188;28;20235;-73
2021/12/25 11:22:45;;;;;;;2.00;0.60;;;;;;;;;;5067298;28;20263;-74
2021/12/25 11:25:10;;;;;;;1.57;0.80;;;;;;;;;;5066575;28;20271;-74
2021/12/25 11:27:35;;;;;;;1.20;0.70;;;;;;;;;;5063273;28;20173;-74
2021/12/25 11:30:02;;;;;;;0.80;0.50;;;;;;;;;;5066044;28;20212;-73
2021/12/25 11:32:27;;;;;;;0.67;0.53;;;;;;;;;;5082153;28;20672;-74
2021/12/25 11:34:52;;;;;;;0.93;0.63;;;;;;;;;;5073420;28;20180;-74
2021/12/25 11:37:17;;;;;;;1.10;0.80;;;;;;;;;;5065791;28;20216;-74
2021/12/25 11:39:43;;;;;;;1.27;0.80;;;;;;;;;;5068213;28;20200;-74
2021/12/25 11:42:10;;;;;;;5.40;0.50;;;;;;;;;;5073324;28;20176;-74
2021/12/25 11:44:41;;;;;;;1.30;0.70;;;;;;;;;;5071630;28;20661;-74
2021/12/25 11:47:10;;;;;;;0.93;0.80;;;;;;;;;;5075778;28;20355;-75
2021/12/25 11:49:51;;;;;;;1.00;0.53;;;;;;;;;;5073906;28;20623;-73
2021/12/25 11:52:19;;;;;;;2.00;0.77;;;;;;;;;;5071281;28;20334;-73
2021/12/25 11:59:43;;;;;;;1.23;0.80;;;;;;;;;;5073576;28;20208;-74
2021/12/25 12:02:08;;;;;;;1.60;0.90;;;;;;;;;;5070068;28;20665;-75
2021/12/25 12:04:35;;;;;;;1.00;0.70;;;;;;;;;;5075354;28;20199;-73
2021/12/25 12:07:06;;;;;;;0.93;0.70;;;;;;;;;;5071722;28;20184;-75
2021/12/25 12:09:46;;;;;;;0.80;0.67;;;;;;;;;;5071539;28;20231;-74
2021/12/25 12:12:11;;;;;;;0.67;0.63;;;;;;;;;;5068624;28;20176;-74
2021/12/25 12:14:36;;;;;;;2.65;0.75;;;;;;;;;;5069304;28;20238;-75
2021/12/25 12:17:04;;;;;;;11.23;9.40;;;;;;;;;;5071174;28;20212;-75
2021/12/25 12:19:29;;;;;;;13.40;10.80;;;;;;;;;;5074385;28;20188;-72
2021/12/25 12:21:54;;;;;;;58.22;25.80;;;;;;;;;;5075027;28;20186;-75
2021/12/25 12:24:38;;;;;;;56.60;32.40;;;;;;;;;;5069542;28;20279;-75
2021/12/25 12:27:04;;;;;;;4.00;2.30;;;;;;;;;;5069698;28;20299;-73
2021/12/25 12:29:38;;;;;;;6.23;3.20;;;;;;;;;;5067961;28;20695;-72
2021/12/25 12:32:05;;;;;;;2.40;1.40;;;;;;;;;;5071998;28;20175;-73
2021/12/25 12:34:30;;;;;;;2.57;1.30;;;;;;;;;;5071211;28;20184;-73
2021/12/25 12:37:27;;;;;;;1.37;1.20;;;;;;;;;;5074456;28;20211;-75
2021/12/25 12:39:52;;;;;;;1.00;0.90;;;;;;;;;;5033686;28;20208;-75
2021/12/25 12:42:18;;;;;;;1.77;1.60;;;;;;;;;;5069717;28;20184;-75
2021/12/25 12:44:43;;;;;;;2.43;1.47;;;;;;;;;;5070311;28;20190;-74
2021/12/25 12:47:13;;;;;;;1.60;1.10;;;;;;;;;;5069285;28;20244;-75
2021/12/25 12:49:38;;;;;;;4.23;1.30;;;;;;;;;;5075857;28;20249;-73
2021/12/25 12:52:09;;;;;;;1.27;0.80;;;;;;;;;;5068187;28;20177;-73
2021/12/25 12:54:41;;;;;;;1.23;0.90;;;;;;;;;;5069413;28;20294;-76
2021/12/25 12:57:07;;;;;;;1.90;0.90;;;;;;;;;;5066795;28;20278;-73
2021/12/25 12:59:42;;;;;;;1.87;1.67;;;;;;;;;;5044783;22;20362;-74
2021/12/25 13:02:08;;;;;;;3.20;1.30;;;;;;;;;;5001823;28;20626;-73
2021/12/25 13:04:50;;;;;;;1.27;0.80;;;;;;;;;;5003418;28;20790;-73
2021/12/25 13:07:16;;;;;;;2.43;0.70;;;;;;;;;;5002232;28;20269;-72
2021/12/25 13:09:46;;;;;;;0.80;0.70;;;;;;;;;;5000217;28;20205;-74
2021/12/25 13:12:25;;;;;;;1.27;0.50;;;;;;;;;;5003121;28;20327;-72
2021/12/25 13:15:00;;;;;;;0.90;0.70;;;;;;;;;;5004280;28;20244;-75
2021/12/25 13:17:26;;;;;;;1.03;0.70;;;;;;;;;;5003279;28;21872;-72
2021/12/25 13:19:51;;;;;;;3.63;0.80;;;;;;;;;;5005717;28;20717;-74
2021/12/25 13:22:16;;;;;;;0.90;0.73;;;;;;;;;;5003367;28;20310;-73
2021/12/25 13:24:41;;;;;;;1.77;0.63;;;;;;;;;;5002720;28;20190;-71
2021/12/25 13:27:07;;;;;;;1.47;0.70;;;;;;;;;;5004349;28;20191;-72
2021/12/25 13:29:32;;;;;;;1.60;1.00;;;;;;;;;;5018431;28;20217;-72
2021/12/25 13:31:57;;;;;;;1.00;0.60;;;;;;;;;;5004126;28;20178;-72
2021/12/25 13:34:23;;;;;;;1.23;0.63;;;;;;;;;;5002140;28;20539;-72
2021/12/25 13:36:54;;;;;;;4.00;0.57;;;;;;;;;;4999764;28;20214;-71
2021/12/25 13:39:24;;;;;;;1.23;0.80;;;;;;;;;;5018347;28;21590;-72
2021/12/25 13:42:08;;;;;;;0.97;0.60;;;;;;;;;;5000940;28;20277;-74
2021/12/25 13:44:34;;;;;;;0.50;0.43;;;;;;;;;;5011913;28;20190;-71
2021/12/25 13:47:03;;;;;;;0.73;0.50;;;;;;;;;;4996713;28;20202;-73
2021/12/25 13:49:29;;;;;;;1.27;0.70;;;;;;;;;;5021200;28;20259;-71
2021/12/25 13:51:54;;;;;;;0.93;0.73;;;;;;;;;;5019094;28;20179;-73
2021/12/25 13:54:20;;;;;;;2.90;0.70;;;;;;;;;;5011899;28;20664;-73
2021/12/25 13:56:48;;;;;;;0.63;0.63;;;;;;;;;;5003881;28;20206;-72
2021/12/25 13:59:14;;;;;;;1.07;0.90;;;;;;;;;;5002404;28;20745;-74
2021/12/25 14:01:40;;;;;;;0.93;0.60;;;;;;;;;;5003302;28;20189;-73
2021/12/25 14:04:12;;;;;;;1.20;0.80;;;;;;;;;;5005131;28;20655;-72
2021/12/25 14:06:38;;;;;;;0.70;0.70;;;;;;;;;;5003998;28;20671;-72
2021/12/25 14:09:05;;;;;;;0.93;0.70;;;;;;;;;;5002475;28;20226;-72
2021/12/25 14:11:31;;;;;;;4.13;1.17;;;;;;;;;;5003045;28;20197;-72
2021/12/25 14:13:56;;;;;;;1.30;0.83;;;;;;;;;;5001588;28;20178;-72
2021/12/25 14:16:22;;;;;;;0.90;0.50;;;;;;;;;;5001627;28;20300;-72
2021/12/25 14:18:47;;;;;;;92.73;43.40;;;;;;;;;;5001123;28;20209;-71
2021/12/25 14:21:15;;;;;;;70.80;24.90;;;;;;;;;;5002011;28;21036;-72
2021/12/25 14:23:40;;;;;;;31.03;9.93;;;;;;;;;;5000335;28;20273;-74
2021/12/25 14:26:06;;;;;;;54.40;12.93;;;;;;;;;;5001417;28;20202;-71
2021/12/25 14:28:32;;;;;;;59.83;13.77;;;;;;;;;;5001804;28;20667;-74
2021/12/25 14:31:05;;;;;;;17.23;4.20;;;;;;;;;;5000627;28;20214;-74
2021/12/25 14:33:31;;;;;;;71.23;18.27;;;;;;;;;;4999109;28;20313;-71
2021/12/25 14:35:57;;;;;;;37.57;11.80;;;;;;;;;;5012306;28;20199;-72
2021/12/25 14:38:22;;;;;;;84.10;32.20;;;;;;;;;;4999589;28;21496;-71
2021/12/25 14:40:49;;;;;;;16.27;10.70;;;;;;;;;;5004212;28;20758;-72
2021/12/25 14:43:34;;;;;;;70.80;38.83;;;;;;;;;;5009210;28;20178;-71
2021/12/25 14:46:00;;;;;;;75.87;50.37;;;;;;;;;;5004952;28;20221;-71
2021/12/25 14:48:41;;;;;;;14.03;12.63;;;;;;;;;;5005742;28;20278;-72
2021/12/25 14:51:08;;;;;;;6.73;5.30;;;;;;;;;;4998930;28;20185;-74
2021/12/25 14:53:42;;;;;;;5.60;4.63;;;;;;;;;;5002465;28;20190;-74
2021/12/25 14:56:13;;;;;;;3.80;2.83;;;;;;;;;;5004987;28;20197;-74
2021/12/25 14:58:45;;;;;;;3.83;2.90;;;;;;;;;;5026635;28;20218;-73
2021/12/25 15:01:12;;;;;;;3.00;2.53;;;;;;;;;;5008730;28;20197;-74
2021/12/25 15:03:41;;;;;;;2.67;2.20;;;;;;;;;;5014195;28;20178;-74
2021/12/25 15:06:17;;;;;;;109.43;68.27;;;;;;;;;;5003263;28;20205;-75
2021/12/25 15:08:43;;;;;;;48.23;40.57;;;;;;;;;;5015437;28;20246;-72
2021/12/25 15:11:08;;;;;;;631.13;363.60;;;;;;;;;;5001573;28;20802;-75
2021/12/25 15:13:33;;;;;;;316.57;178.47;;;;;;;;;;5005802;28;20191;-73
2021/12/25 15:15:59;;;;;;;126.97;72.10;;;;;;;;;;5002368;28;20203;-72
2021/12/25 15:18:25;;;;;;;13.50;8.93;;;;;;;;;;5005698;28;20206;-71
2021/12/25 15:21:05;;;;;;;313.67;121.73;;;;;;;;;;5012375;28;20187;-72
2021/12/25 15:23:31;;;;;;;90.63;35.93;;;;;;;;;;5000504;28;20187;-72
2021/12/25 15:26:04;;;;;;;46.43;24.73;;;;;;;;;;5003820;28;20194;-72
2021/12/25 15:28:29;;;;;;;8.73;3.97;;;;;;;;;;5000496;28;20210;-71
2021/12/25 15:30:54;;;;;;;6.00;2.70;;;;;;;;;;5005060;28;20182;-72
2021/12/25 15:33:19;;;;;;;4.30;2.30;;;;;;;;;;5003718;28;20337;-73
2021/12/25 15:35:45;;;;;;;2.30;1.67;;;;;;;;;;5000749;28;20607;-73
2021/12/25 15:38:22;;;;;;;3.73;2.23;;;;;;;;;;5004940;28;20328;-71
2021/12/25 15:40:49;;;;;;;3.50;1.40;;;;;;;;;;5006558;28;20202;-73
2021/12/25 15:43:14;;;;;;;1.93;1.00;;;;;;;;;;4999349;28;20186;-73
2021/12/25 15:45:39;;;;;;;3.77;1.23;;;;;;;;;;4999674;28;20253;-73
2021/12/25 15:48:05;;;;;;;1.93;1.37;;;;;;;;;;5018199;28;20237;-71